Time;durP1;ratioP1;P1;durP2;ratioP2;P2;SDS_P1;SDS_P2;PMS_P1;PMS_P2;Temp;Humidity;BMP_temperature;BMP_pressure;BME280_temperature;BME280_humidity;BME280_pressure;Samples;Min_cycle;Max_cycle;Signal;HPM_P1;HPM_P2
2023/12/09 00:02:03;;;;;;;2.83;1.30;;;9.50;99.90;;;;;;4984169;28;20266;-69
2023/12/09 00:04:31;;;;;;;1.77;1.13;;;9.50;99.90;;;;;;4978590;28;20172;-68
2023/12/09 00:06:59;;;;;;;1.92;1.27;;;9.50;99.90;;;;;;4975657;28;20192;-69
2023/12/09 00:09:27;;;;;;;2.25;1.30;;;9.60;99.90;;;;;;4992064;28;20171;-70
2023/12/09 00:11:53;;;;;;;2.50;1.15;;;9.60;99.90;;;;;;4975308;28;20271;-67
2023/12/09 00:14:20;;;;;;;2.65;1.50;;;9.60;99.90;;;;;;5001740;28;20307;-67
2023/12/09 00:16:46;;;;;;;2.03;1.15;;;9.60;99.90;;;;;;4983579;28;20231;-69
2023/12/09 00:19:14;;;;;;;3.08;1.30;;;9.60;99.90;;;;;;4970190;28;20290;-69
2023/12/09 00:21:39;;;;;;;3.35;1.38;;;9.60;99.90;;;;;;4982010;28;20262;-68
2023/12/09 00:24:05;;;;;;;2.17;1.10;;;9.60;99.90;;;;;;4975479;28;20231;-68
2023/12/09 00:26:33;;;;;;;2.13;1.20;;;9.60;99.90;;;;;;4975839;28;20211;-68
2023/12/09 00:29:01;;;;;;;4.38;1.63;;;9.60;99.90;;;;;;4971969;28;20488;-69
2023/12/09 00:31:34;;;;;;;3.25;1.30;;;9.60;99.90;;;;;;4975374;28;20183;-68
2023/12/09 00:33:59;;;;;;;2.38;1.27;;;9.70;99.90;;;;;;4987621;28;20239;-68
2023/12/09 00:36:27;;;;;;;1.75;1.20;;;9.60;99.90;;;;;;4974657;28;20299;-70
2023/12/09 00:38:53;;;;;;;1.83;1.10;;;9.60;99.90;;;;;;4974863;28;20206;-69
2023/12/09 00:41:21;;;;;;;2.75;1.23;;;9.60;99.90;;;;;;4975775;28;20235;-69
2023/12/09 00:43:51;;;;;;;3.40;1.45;;;9.60;99.90;;;;;;4981655;28;20172;-70
2023/12/09 00:46:22;;;;;;;1.85;1.02;;;9.60;99.90;;;;;;4980504;28;20204;-70
2023/12/09 00:48:52;;;;;;;2.78;1.17;;;9.60;99.90;;;;;;4972497;28;20203;-69
2023/12/09 00:51:20;;;;;;;3.58;1.60;;;9.70;99.90;;;;;;4977395;28;20203;-67
2023/12/09 00:53:45;;;;;;;2.65;1.30;;;9.70;99.90;;;;;;4975185;28;20206;-68
2023/12/09 00:56:13;;;;;;;1.70;1.25;;;9.70;99.90;;;;;;4972924;28;20227;-69
2023/12/09 00:58:41;;;;;;;2.38;1.30;;;9.60;99.90;;;;;;4983568;28;20292;-70
2023/12/09 01:01:07;;;;;;;3.05;1.30;;;9.70;99.90;;;;;;4959734;28;20204;-71
2023/12/09 01:03:35;;;;;;;2.15;1.13;;;9.70;99.90;;;;;;4979479;28;20179;-69
2023/12/09 01:06:02;;;;;;;2.58;1.27;;;9.70;99.90;;;;;;4987431;28;20180;-67
2023/12/09 01:08:30;;;;;;;2.10;1.38;;;9.70;99.90;;;;;;4975292;28;20183;-66
2023/12/09 01:10:56;;;;;;;1.95;1.10;;;9.70;99.90;;;;;;4971036;28;20208;-70
2023/12/09 01:13:22;;;;;;;3.33;1.33;;;9.70;99.90;;;;;;4975150;28;20452;-69
2023/12/09 01:15:48;;;;;;;2.55;1.00;;;9.70;99.90;;;;;;4956344;28;20208;-66
2023/12/09 01:18:15;;;;;;;1.92;1.20;;;9.70;99.90;;;;;;4978194;28;20210;-68
2023/12/09 01:20:41;;;;;;;1.98;1.00;;;9.70;99.90;;;;;;4970713;28;20172;-70
2023/12/09 01:23:07;;;;;;;2.53;1.20;;;9.70;99.90;;;;;;4978252;28;20202;-69
2023/12/09 01:25:35;;;;;;;4.10;1.20;;;9.70;99.90;;;;;;4968867;28;20266;-69
2023/12/09 01:28:03;;;;;;;1.77;1.05;;;9.80;99.90;;;;;;4984185;28;20265;-69
2023/12/09 01:30:29;;;;;;;2.85;1.40;;;9.70;99.90;;;;;;4978667;28;20206;-70
2023/12/09 01:32:57;;;;;;;3.10;1.80;;;9.80;99.90;;;;;;4978935;28;20168;-69
2023/12/09 01:35:23;;;;;;;2.97;2.00;;;9.70;99.90;;;;;;4977816;28;20206;-69
2023/12/09 01:37:48;;;;;;;3.47;2.53;;;9.70;99.90;;;;;;4976063;28;20207;-69
2023/12/09 01:40:15;;;;;;;4.78;2.65;;;9.60;99.90;;;;;;4976620;28;20181;-67
2023/12/09 01:42:46;;;;;;;4.88;2.42;;;9.60;99.90;;;;;;4978466;28;20187;-69
2023/12/09 01:45:13;;;;;;;3.70;2.63;;;9.60;99.90;;;;;;4975226;28;20275;-68
2023/12/09 01:47:42;;;;;;;3.80;2.55;;;9.50;99.90;;;;;;4974080;28;20185;-69
2023/12/09 01:50:11;;;;;;;5.45;3.00;;;9.50;99.90;;;;;;4993069;28;20210;-70
2023/12/09 01:52:36;;;;;;;4.25;3.08;;;9.40;99.90;;;;;;4977641;28;20324;-70
2023/12/09 01:55:02;;;;;;;4.00;2.40;;;9.40;99.90;;;;;;4995736;28;20306;-68
2023/12/09 01:57:33;;;;;;;4.30;2.92;;;9.30;99.90;;;;;;4980983;28;20282;-70
2023/12/09 01:59:59;;;;;;;6.28;3.00;;;9.30;99.90;;;;;;4976075;28;20184;-68
2023/12/09 02:02:25;;;;;;;4.75;2.90;;;9.20;99.90;;;;;;4978126;28;20182;-70
2023/12/09 02:04:52;;;;;;;5.20;2.33;;;9.20;99.90;;;;;;4982242;28;20199;-70
2023/12/09 02:07:18;;;;;;;4.45;2.40;;;9.10;99.90;;;;;;4978301;28;20186;-68
2023/12/09 02:09:44;;;;;;;3.78;2.42;;;9.00;99.90;;;;;;4979668;28;20202;-68
2023/12/09 02:12:21;;;;;;;3.50;2.63;;;8.90;99.90;;;;;;4981155;28;20176;-70
2023/12/09 02:14:51;;;;;;;2.97;2.17;;;8.90;99.90;;;;;;4978734;28;20262;-70
2023/12/09 02:17:22;;;;;;;3.70;2.10;;;8.80;99.90;;;;;;4993556;28;20180;-70
2023/12/09 02:19:53;;;;;;;2.33;1.90;;;8.70;99.90;;;;;;4975236;28;20215;-68
2023/12/09 02:22:18;;;;;;;3.10;2.20;;;8.70;99.90;;;;;;4984463;28;20197;-70
2023/12/09 02:24:44;;;;;;;4.30;2.47;;;8.60;99.90;;;;;;4972793;28;20263;-69
2023/12/09 02:27:16;;;;;;;5.03;3.00;;;8.60;99.90;;;;;;4977305;28;20199;-69
2023/12/09 02:29:53;;;;;;;3.95;2.65;;;8.50;99.90;;;;;;4977558;28;20292;-70
2023/12/09 02:32:28;;;;;;;4.77;2.80;;;8.40;99.90;;;;;;4976855;28;20211;-68
2023/12/09 02:34:54;;;;;;;4.87;3.10;;;8.40;99.90;;;;;;4958331;29;20176;-68
2023/12/09 02:37:21;;;;;;;4.90;3.10;;;8.30;99.90;;;;;;4958209;29;20407;-67
2023/12/09 02:39:47;;;;;;;3.07;2.53;;;8.30;99.90;;;;;;4972266;28;20251;-70
2023/12/09 02:42:14;;;;;;;5.33;2.60;;;8.20;99.90;;;;;;4984203;28;20207;-70
2023/12/09 02:44:42;;;;;;;5.87;3.30;;;8.20;99.90;;;;;;4977248;28;20184;-68
2023/12/09 02:47:13;;;;;;;4.27;2.50;;;8.20;99.90;;;;;;4975968;28;20194;-70
2023/12/09 02:49:38;;;;;;;4.50;2.70;;;8.10;99.90;;;;;;4973903;28;20185;-69
2023/12/09 02:52:07;;;;;;;4.30;2.30;;;8.10;99.90;;;;;;4958173;29;20177;-67
2023/12/09 02:54:34;;;;;;;5.33;2.70;;;8.10;99.90;;;;;;4974934;28;20215;-70
2023/12/09 02:57:00;;;;;;;3.60;2.47;;;8.10;99.90;;;;;;4977122;28;20239;-69
2023/12/09 02:59:28;;;;;;;4.30;2.90;;;8.00;99.90;;;;;;4977403;28;20180;-70
2023/12/09 03:01:56;;;;;;;4.57;2.80;;;8.00;99.90;;;;;;4977209;28;20196;-70
2023/12/09 03:04:22;;;;;;;3.63;2.90;;;8.00;99.90;;;;;;4989408;28;20184;-70
2023/12/09 03:06:47;;;;;;;3.57;2.50;;;7.90;99.90;;;;;;4977320;28;20180;-71
2023/12/09 03:09:13;;;;;;;5.30;2.60;;;7.90;99.90;;;;;;4977238;28;20271;-70
2023/12/09 03:11:39;;;;;;;4.47;2.40;;;7.90;99.90;;;;;;4976823;28;20184;-69
2023/12/09 03:14:07;;;;;;;4.70;2.70;;;7.90;99.90;;;;;;4977076;28;20211;-70
2023/12/09 03:16:38;;;;;;;4.67;2.47;;;7.90;99.90;;;;;;4977099;28;20381;-68
2023/12/09 03:19:08;;;;;;;5.37;2.97;;;7.80;99.90;;;;;;4976962;28;20244;-70
2023/12/09 03:21:34;;;;;;;5.70;3.53;;;7.80;99.90;;;;;;4984409;28;20180;-71
2023/12/09 03:23:59;;;;;;;5.37;3.33;;;7.80;99.90;;;;;;4986815;28;20254;-70
2023/12/09 03:26:25;;;;;;;4.93;2.93;;;7.70;99.90;;;;;;4976472;28;20266;-69
2023/12/09 03:28:54;;;;;;;4.63;3.00;;;7.70;99.90;;;;;;4960228;28;20180;-67
2023/12/09 03:31:22;;;;;;;6.97;3.10;;;7.70;99.90;;;;;;4977318;28;20176;-70
2023/12/09 03:33:50;;;;;;;5.37;2.90;;;7.70;99.90;;;;;;4973486;28;20279;-69
2023/12/09 03:36:15;;;;;;;4.70;2.30;;;7.70;99.90;;;;;;4977866;28;20204;-68
2023/12/09 03:38:41;;;;;;;4.77;2.30;;;7.70;99.90;;;;;;4973763;28;20478;-70
2023/12/09 03:41:10;;;;;;;5.87;2.57;;;7.70;99.90;;;;;;4958906;28;20208;-70
2023/12/09 03:43:38;;;;;;;3.60;2.30;;;7.70;99.90;;;;;;4967135;28;20172;-70
2023/12/09 03:46:04;;;;;;;4.13;2.50;;;7.70;99.90;;;;;;4974118;28;20208;-67
2023/12/09 03:48:33;;;;;;;4.60;2.23;;;7.70;99.90;;;;;;4973362;28;20242;-68
2023/12/09 03:50:59;;;;;;;4.87;2.73;;;7.70;99.90;;;;;;4977394;28;20188;-70
2023/12/09 03:53:27;;;;;;;3.10;2.30;;;7.80;99.90;;;;;;4989894;28;20201;-70
2023/12/09 03:55:57;;;;;;;4.30;2.37;;;7.80;99.90;;;;;;4974508;28;20294;-70
2023/12/09 03:58:23;;;;;;;5.63;2.77;;;7.80;99.90;;;;;;4975662;28;20248;-69
2023/12/09 04:00:49;;;;;;;6.30;3.00;;;7.80;99.90;;;;;;4964412;28;20239;-70
2023/12/09 04:03:16;;;;;;;3.37;2.43;;;7.80;99.90;;;;;;4999931;28;20183;-71
2023/12/09 04:05:44;;;;;;;5.87;2.80;;;7.80;99.90;;;;;;4978031;28;20199;-70
2023/12/09 04:08:09;;;;;;;4.77;2.50;;;7.80;99.90;;;;;;4990007;28;20171;-64
2023/12/09 04:10:37;;;;;;;4.53;2.40;;;7.80;99.90;;;;;;4975215;28;20203;-67
2023/12/09 04:13:03;;;;;;;3.53;2.60;;;7.80;99.90;;;;;;4975987;28;20180;-68
2023/12/09 04:15:30;;;;;;;4.97;2.50;;;7.80;99.90;;;;;;4976010;28;20223;-67
2023/12/09 04:17:59;;;;;;;4.13;2.43;;;7.70;99.90;;;;;;4975829;28;20243;-70
2023/12/09 04:20:27;;;;;;;4.30;2.60;;;7.70;99.90;;;;;;4972398;28;20175;-70
2023/12/09 04:22:54;;;;;;;3.80;2.30;;;7.80;99.90;;;;;;4956448;28;20192;-68
2023/12/09 04:25:24;;;;;;;4.60;2.23;;;7.80;99.90;;;;;;4956360;28;20235;-69
2023/12/09 04:27:50;;;;;;;3.50;2.40;;;7.70;99.90;;;;;;4977498;28;20200;-69
2023/12/09 04:30:21;;;;;;;4.20;2.23;;;7.80;99.90;;;;;;4975468;28;20180;-72
2023/12/09 04:32:47;;;;;;;2.57;2.03;;;7.70;99.90;;;;;;4975635;28;20164;-68
2023/12/09 04:35:16;;;;;;;4.73;2.40;;;7.80;99.90;;;;;;4975396;28;20303;-70
2023/12/09 04:37:43;;;;;;;3.03;2.10;;;7.60;99.90;;;;;;4975495;28;20192;-68
2023/12/09 04:40:12;;;;;;;3.13;2.10;;;7.70;99.90;;;;;;4975697;28;20176;-69
2023/12/09 04:42:40;;;;;;;3.80;2.20;;;7.70;99.90;;;;;;4974958;28;20172;-70
2023/12/09 04:45:07;;;;;;;3.20;1.97;;;7.70;99.90;;;;;;4983727;28;20207;-69
2023/12/09 04:47:33;;;;;;;4.47;2.40;;;7.70;99.90;;;;;;4974581;28;20180;-67
2023/12/09 04:50:00;;;;;;;3.47;2.30;;;7.70;99.90;;;;;;4968484;28;20220;-67
2023/12/09 04:52:25;;;;;;;3.27;2.10;;;7.70;99.90;;;;;;4960576;28;20189;-70
2023/12/09 04:54:53;;;;;;;4.63;2.13;;;7.70;99.90;;;;;;4976486;28;20184;-68
2023/12/09 04:57:24;;;;;;;3.70;1.97;;;7.70;99.90;;;;;;4992200;28;20205;-69
2023/12/09 04:59:52;;;;;;;2.87;2.10;;;7.70;99.90;;;;;;4985804;28;20172;-70
2023/12/09 05:02:20;;;;;;;3.43;2.10;;;7.70;99.90;;;;;;4978901;28;20200;-70
2023/12/09 05:04:46;;;;;;;3.00;2.03;;;7.70;99.90;;;;;;4979548;28;20273;-69
2023/12/09 05:07:11;;;;;;;3.93;2.00;;;7.80;99.90;;;;;;4970597;28;20200;-70
2023/12/09 05:09:37;;;;;;;4.53;2.17;;;7.80;99.90;;;;;;4979305;28;20180;-69
2023/12/09 05:12:03;;;;;;;3.20;2.17;;;7.90;99.90;;;;;;4979567;28;20275;-70
2023/12/09 05:14:29;;;;;;;5.47;2.67;;;7.80;99.90;;;;;;4979097;28;20267;-69
2023/12/09 05:16:57;;;;;;;3.43;2.60;;;7.90;99.90;;;;;;4977747;28;20211;-69
2023/12/09 05:19:27;;;;;;;3.80;2.50;;;7.90;99.90;;;;;;4969700;28;20180;-68
2023/12/09 05:21:57;;;;;;;4.97;2.40;;;7.80;99.90;;;;;;4975575;28;20181;-70
2023/12/09 05:24:25;;;;;;;4.80;2.07;;;7.80;99.90;;;;;;5011553;28;20192;-70
2023/12/09 05:26:53;;;;;;;4.03;2.30;;;7.80;99.90;;;;;;4993045;28;20223;-70
2023/12/09 05:29:19;;;;;;;4.23;2.23;;;7.80;99.90;;;;;;4992091;28;20409;-70
2023/12/09 05:31:44;;;;;;;4.13;2.33;;;7.70;99.90;;;;;;4997912;28;20228;-69
2023/12/09 05:34:12;;;;;;;5.63;2.23;;;7.70;99.90;;;;;;4977768;28;20207;-70
2023/12/09 05:36:40;;;;;;;4.57;2.03;;;7.60;99.90;;;;;;4978164;28;20222;-69
2023/12/09 05:39:06;;;;;;;5.53;2.40;;;7.60;99.90;;;;;;4979971;28;20180;-70
2023/12/09 05:41:32;;;;;;;3.83;2.40;;;7.50;99.90;;;;;;4964949;28;20181;-70
2023/12/09 05:44:00;;;;;;;4.53;2.00;;;7.50;99.90;;;;;;4979397;28;20187;-68
2023/12/09 05:46:28;;;;;;;3.73;2.20;;;7.50;99.90;;;;;;4997846;28;20214;-67
2023/12/09 05:48:53;;;;;;;3.37;2.20;;;7.50;99.90;;;;;;4980671;28;20219;-69
2023/12/09 05:51:19;;;;;;;3.10;2.20;;;7.50;99.90;;;;;;4988126;28;20340;-68
2023/12/09 05:53:44;;;;;;;2.60;1.80;;;7.40;99.90;;;;;;5007357;28;20250;-70
2023/12/09 05:56:13;;;;;;;3.33;1.90;;;7.40;99.90;;;;;;4990591;28;20212;-70
2023/12/09 05:58:41;;;;;;;1.90;1.60;;;7.60;99.90;;;;;;4976189;28;20266;-69
2023/12/09 06:01:07;;;;;;;2.83;1.80;;;7.40;99.90;;;;;;4981553;28;20207;-70
2023/12/09 06:03:33;;;;;;;3.53;1.90;;;7.50;99.90;;;;;;4966398;28;20263;-67
2023/12/09 06:06:01;;;;;;;2.97;1.70;;;7.40;99.90;;;;;;4976510;28;20196;-70
2023/12/09 06:08:28;;;;;;;2.50;1.80;;;7.50;99.90;;;;;;4975942;28;20204;-69
2023/12/09 06:10:54;;;;;;;5.40;2.03;;;7.50;99.90;;;;;;4980420;28;20184;-65
2023/12/09 06:13:20;;;;;;;3.03;1.60;;;7.50;99.90;;;;;;4978351;28;20187;-70
2023/12/09 06:15:46;;;;;;;2.83;1.87;;;7.50;99.90;;;;;;4977663;28;20275;-70
2023/12/09 06:18:11;;;;;;;2.50;1.40;;;7.60;99.90;;;;;;4983378;28;20176;-69
2023/12/09 06:20:37;;;;;;;4.43;1.60;;;7.60;99.90;;;;;;4977876;28;20179;-69
2023/12/09 06:23:02;;;;;;;3.10;2.00;;;7.60;99.90;;;;;;4977448;28;20196;-69
2023/12/09 06:25:28;;;;;;;2.03;1.57;;;7.70;99.90;;;;;;4977166;28;20177;-70
2023/12/09 06:27:56;;;;;;;3.47;1.90;;;7.60;99.90;;;;;;4984253;28;20262;-70
2023/12/09 06:30:21;;;;;;;2.70;1.93;;;7.70;99.90;;;;;;4978196;28;20207;-70
2023/12/09 06:32:52;;;;;;;3.30;1.90;;;7.60;99.90;;;;;;4977726;28;20258;-69
2023/12/09 06:35:19;;;;;;;3.70;2.13;;;7.70;99.90;;;;;;4989052;28;20219;-70
2023/12/09 06:37:47;;;;;;;3.13;1.77;;;7.70;99.90;;;;;;4965915;28;20175;-70
2023/12/09 06:40:13;;;;;;;2.90;1.93;;;7.70;99.90;;;;;;4996815;28;20473;-69
2023/12/09 06:42:41;;;;;;;3.37;2.00;;;7.70;99.90;;;;;;4986685;28;20180;-69
2023/12/09 06:45:07;;;;;;;3.23;2.20;;;7.70;99.90;;;;;;4964298;28;20269;-68
2023/12/09 06:47:32;;;;;;;5.13;2.23;;;7.70;99.90;;;;;;4977901;28;20199;-70
2023/12/09 06:49:58;;;;;;;6.77;3.30;;;7.70;99.90;;;;;;4974647;28;20269;-70
2023/12/09 06:52:26;;;;;;;5.97;2.30;;;7.70;99.90;;;;;;4999312;28;20180;-68
2023/12/09 06:54:54;;;;;;;6.87;2.27;;;7.70;99.90;;;;;;4994821;28;20208;-70
2023/12/09 06:57:19;;;;;;;4.90;2.27;;;7.70;99.90;;;;;;4979781;28;20214;-68
2023/12/09 06:59:45;;;;;;;3.40;1.77;;;7.70;99.90;;;;;;4969975;28;20288;-70
2023/12/09 07:02:10;;;;;;;5.03;2.13;;;7.70;99.90;;;;;;4968278;28;20199;-70
2023/12/09 07:04:36;;;;;;;4.93;2.03;;;7.70;99.90;;;;;;4973759;28;20184;-70
2023/12/09 07:07:02;;;;;;;3.80;2.00;;;7.70;99.90;;;;;;4981325;28;20206;-69
2023/12/09 07:09:28;;;;;;;3.93;2.03;;;7.70;99.90;;;;;;4976418;28;20180;-69
2023/12/09 07:11:54;;;;;;;3.70;2.20;;;7.70;99.90;;;;;;4992967;28;20194;-70
2023/12/09 07:14:20;;;;;;;4.50;2.00;;;7.70;99.90;;;;;;4976281;28;20204;-70
2023/12/09 07:16:48;;;;;;;4.00;1.93;;;7.70;99.90;;;;;;4974194;28;20216;-70
2023/12/09 07:19:13;;;;;;;3.30;1.70;;;7.80;99.90;;;;;;4977061;28;20239;-70
2023/12/09 07:21:39;;;;;;;3.10;1.67;;;7.70;99.90;;;;;;4972847;28;20181;-70
2023/12/09 07:24:06;;;;;;;3.27;1.73;;;7.70;99.90;;;;;;4957156;28;20259;-69
2023/12/09 07:26:31;;;;;;;3.03;1.80;;;7.70;99.90;;;;;;4970871;28;20262;-69
2023/12/09 07:29:03;;;;;;;3.27;1.60;;;7.70;99.90;;;;;;4969892;28;20187;-67
2023/12/09 07:31:29;;;;;;;3.07;1.77;;;7.80;99.90;;;;;;4989281;28;20210;-64
2023/12/09 07:33:57;;;;;;;2.70;1.80;;;7.80;99.90;;;;;;4976290;28;20180;-66
2023/12/09 07:36:22;;;;;;;6.03;1.97;;;7.80;99.90;;;;;;4975398;28;20200;-68
2023/12/09 07:38:50;;;;;;;6.10;2.20;;;7.80;99.90;;;;;;4976998;28;20196;-65
2023/12/09 07:41:18;;;;;;;4.27;2.10;;;7.90;99.90;;;;;;4975630;28;20176;-66
2023/12/09 07:43:43;;;;;;;4.33;2.37;;;7.90;99.90;;;;;;4973706;28;20176;-65
2023/12/09 07:46:11;;;;;;;4.33;1.90;;;7.90;99.90;;;;;;4974719;28;20267;-66
2023/12/09 07:48:39;;;;;;;3.03;1.67;;;7.90;99.90;;;;;;4971396;28;20184;-65
2023/12/09 07:51:09;;;;;;;3.40;1.70;;;7.90;99.90;;;;;;4989904;28;20196;-67
2023/12/09 07:53:37;;;;;;;3.83;1.80;;;8.00;99.90;;;;;;4971419;28;20184;-70
2023/12/09 07:56:06;;;;;;;3.20;1.80;;;8.00;99.90;;;;;;4975679;28;20204;-68
2023/12/09 07:58:34;;;;;;;3.13;1.60;;;8.00;99.90;;;;;;4974831;28;20176;-71
2023/12/09 08:01:01;;;;;;;3.90;1.97;;;8.10;99.90;;;;;;4976157;28;20172;-70
2023/12/09 08:03:32;;;;;;;4.00;2.00;;;8.10;99.90;;;;;;4973993;28;20517;-69
2023/12/09 08:06:02;;;;;;;6.77;2.73;;;8.10;99.90;;;;;;4975196;28;20184;-71
2023/12/09 08:08:30;;;;;;;4.40;1.87;;;8.10;99.90;;;;;;4975866;28;20180;-68
2023/12/09 08:10:55;;;;;;;3.80;1.90;;;8.10;99.90;;;;;;4975539;28;20271;-71
2023/12/09 08:13:23;;;;;;;5.43;1.60;;;8.10;99.90;;;;;;4975297;28;20275;-70
2023/12/09 08:15:49;;;;;;;6.67;1.80;;;8.20;99.90;;;;;;4975812;28;20601;-69
2023/12/09 08:18:17;;;;;;;4.63;2.00;;;8.20;99.90;;;;;;4974707;28;20184;-71
2023/12/09 08:20:45;;;;;;;4.77;1.67;;;8.20;99.90;;;;;;4971715;28;20267;-71
2023/12/09 08:23:11;;;;;;;4.50;2.00;;;8.20;99.90;;;;;;4987443;28;20197;-69
2023/12/09 08:25:39;;;;;;;5.93;1.93;;;8.30;99.90;;;;;;4964619;28;20192;-68
2023/12/09 08:28:08;;;;;;;3.63;1.93;;;8.30;99.90;;;;;;4972932;28;20208;-70
2023/12/09 08:30:36;;;;;;;6.87;1.93;;;8.30;99.90;;;;;;4972596;28;20187;-69
2023/12/09 08:33:01;;;;;;;3.42;1.90;;;8.40;99.90;;;;;;4959023;28;20267;-70
2023/12/09 08:35:27;;;;;;;4.07;1.92;;;8.40;99.90;;;;;;4971529;28;20276;-70
2023/12/09 08:37:55;;;;;;;3.80;1.90;;;8.40;99.90;;;;;;4966360;28;20176;-66
2023/12/09 08:40:23;;;;;;;4.93;2.50;;;8.50;99.90;;;;;;4972488;28;20259;-69
2023/12/09 08:42:49;;;;;;;4.33;2.00;;;8.50;99.90;;;;;;4989674;28;20176;-70
2023/12/09 08:45:16;;;;;;;9.00;2.25;;;8.50;99.90;;;;;;4975978;28;20275;-71
2023/12/09 08:47:42;;;;;;;6.97;2.50;;;8.60;99.90;;;;;;4976001;28;20227;-68
2023/12/09 08:50:09;;;;;;;4.13;1.80;;;8.60;99.90;;;;;;4976582;28;20180;-70
2023/12/09 08:52:35;;;;;;;4.15;1.92;;;8.60;99.90;;;;;;4975474;28;20172;-66
2023/12/09 08:55:01;;;;;;;5.40;1.83;;;8.70;99.90;;;;;;4974976;28;20187;-70
2023/12/09 08:57:27;;;;;;;4.22;1.70;;;8.80;99.90;;;;;;4971989;28;20260;-70
2023/12/09 08:59:55;;;;;;;7.13;1.83;;;8.80;99.90;;;;;;4957117;28;20192;-70
2023/12/09 09:02:24;;;;;;;5.10;2.20;;;8.90;99.90;;;;;;4975268;28;20180;-70
2023/12/09 09:04:52;;;;;;;4.15;2.00;;;8.90;99.90;;;;;;4974948;28;20183;-66
2023/12/09 09:07:19;;;;;;;3.83;1.70;;;9.00;99.90;;;;;;4974658;28;20233;-71
2023/12/09 09:09:50;;;;;;;4.38;1.70;;;9.00;99.90;;;;;;4975011;28;20176;-69
2023/12/09 09:12:17;;;;;;;5.13;2.03;;;9.10;99.90;;;;;;4974445;28;20199;-70
2023/12/09 09:14:43;;;;;;;3.80;1.73;;;9.20;99.90;;;;;;4974424;28;20172;-66
2023/12/09 09:17:09;;;;;;;7.10;1.63;;;9.20;99.90;;;;;;4974467;28;20219;-71
2023/12/09 09:19:35;;;;;;;3.30;1.70;;;9.30;99.90;;;;;;4974896;28;20172;-69
2023/12/09 09:22:01;;;;;;;4.40;1.63;;;9.40;99.90;;;;;;4974627;28;20204;-70
2023/12/09 09:24:29;;;;;;;3.83;2.05;;;9.50;99.90;;;;;;4974478;28;20298;-68
2023/12/09 09:26:57;;;;;;;4.07;2.45;;;9.70;99.90;;;;;;4975554;28;20385;-70
2023/12/09 09:29:24;;;;;;;6.55;1.80;;;9.80;99.90;;;;;;4974536;28;20200;-70
2023/12/09 09:31:50;;;;;;;4.03;1.83;;;9.80;99.90;;;;;;4975428;28;20203;-71
2023/12/09 09:34:17;;;;;;;3.17;1.90;;;9.90;99.90;;;;;;4974464;28;20199;-70
2023/12/09 09:36:45;;;;;;;3.45;1.70;;;10.00;99.90;;;;;;4974192;28;20195;-70
2023/12/09 09:39:13;;;;;;;4.70;2.10;;;10.10;99.90;;;;;;4978095;28;20172;-71
2023/12/09 09:41:54;;;;;;;5.15;1.90;;;10.10;99.90;;;;;;4977704;28;20196;-66
2023/12/09 09:44:26;;;;;;;5.88;2.22;;;10.10;99.90;;;;;;4978991;28;20156;-71
2023/12/09 09:46:56;;;;;;;4.22;1.75;;;10.20;99.90;;;;;;4978025;28;20200;-70
2023/12/09 09:49:24;;;;;;;6.75;2.03;;;10.20;99.90;;;;;;4977687;28;20203;-70
2023/12/09 09:51:57;;;;;;;5.53;2.20;;;10.30;99.90;;;;;;4977530;28;20215;-70
2023/12/09 09:54:31;;;;;;;5.53;2.03;;;10.30;99.90;;;;;;4977704;28;20172;-70
2023/12/09 09:57:03;;;;;;;9.13;2.67;;;10.40;99.90;;;;;;4977657;28;20295;-70
2023/12/09 09:59:30;;;;;;;4.05;2.00;;;10.40;99.90;;;;;;4977972;28;20168;-71
2023/12/09 10:01:58;;;;;;;5.43;2.17;;;10.50;99.90;;;;;;4977732;28;20180;-70
2023/12/09 10:04:26;;;;;;;9.60;2.50;;;10.50;99.90;;;;;;4977310;28;20211;-71
2023/12/09 10:06:58;;;;;;;4.88;2.08;;;10.50;99.90;;;;;;4977661;28;20217;-69
2023/12/09 10:09:23;;;;;;;4.82;2.10;;;10.60;99.90;;;;;;4978040;28;20272;-68
2023/12/09 10:11:54;;;;;;;8.88;2.30;;;10.60;99.90;;;;;;4978030;28;20270;-70
2023/12/09 10:14:19;;;;;;;5.90;1.90;;;10.80;99.90;;;;;;4977388;28;20180;-70
2023/12/09 10:16:45;;;;;;;6.75;2.08;;;10.90;99.90;;;;;;4977212;28;20215;-70
2023/12/09 10:19:14;;;;;;;4.95;2.38;;;11.00;99.90;;;;;;4977310;28;20180;-70
2023/12/09 10:21:39;;;;;;;5.50;2.22;;;11.20;99.90;;;;;;4977197;28;20287;-70
2023/12/09 10:24:05;;;;;;;5.70;2.20;;;11.30;99.90;;;;;;4977009;28;20280;-70
2023/12/09 10:26:31;;;;;;;6.03;2.17;;;11.50;99.90;;;;;;4977155;28;20187;-70
2023/12/09 10:28:56;;;;;;;7.85;2.15;;;11.60;99.90;;;;;;4977362;28;20182;-69
2023/12/09 10:31:22;;;;;;;4.70;2.40;;;11.70;99.90;;;;;;4976994;28;20180;-68
2023/12/09 10:33:49;;;;;;;6.35;2.00;;;11.80;99.90;;;;;;4977166;28;20375;-68
2023/12/09 10:36:17;;;;;;;4.18;1.85;;;11.90;99.90;;;;;;4976712;28;20352;-70
2023/12/09 10:38:43;;;;;;;5.03;2.10;;;12.10;99.90;;;;;;4976965;28;20200;-67
2023/12/09 10:41:12;;;;;;;4.00;1.67;;;12.20;99.90;;;;;;4976878;28;20234;-68
2023/12/09 10:43:40;;;;;;;6.20;2.03;;;12.20;99.90;;;;;;4977003;28;20173;-70
2023/12/09 10:46:09;;;;;;;5.50;2.17;;;12.20;99.90;;;;;;4976757;28;20212;-65
2023/12/09 10:48:34;;;;;;;7.28;1.98;;;12.20;99.90;;;;;;4976364;28;20186;-70
2023/12/09 10:51:01;;;;;;;5.10;2.00;;;12.30;99.90;;;;;;4976638;28;20203;-69
2023/12/09 10:53:29;;;;;;;6.25;1.83;;;12.40;99.90;;;;;;4972528;28;20211;-66
2023/12/09 10:55:56;;;;;;;6.68;2.17;;;12.50;99.90;;;;;;4963865;28;20197;-68
2023/12/09 10:58:22;;;;;;;8.40;2.10;;;12.50;99.90;;;;;;4973984;28;20190;-70
2023/12/09 11:00:51;;;;;;;8.65;2.35;;;12.50;99.90;;;;;;4972765;28;20218;-68
2023/12/09 11:03:17;;;;;;;3.90;1.70;;;12.70;99.90;;;;;;4962297;28;20224;-69
2023/12/09 11:05:48;;;;;;;5.18;1.90;;;12.80;99.90;;;;;;4974140;28;20191;-70
2023/12/09 11:08:20;;;;;;;6.25;2.40;;;12.80;99.90;;;;;;4959444;28;20250;-69
2023/12/09 11:10:49;;;;;;;5.40;1.67;;;12.80;99.90;;;;;;4976651;28;20205;-68
2023/12/09 11:13:19;;;;;;;3.95;1.55;;;12.70;99.90;;;;;;4972170;28;20192;-70
2023/12/09 11:15:45;;;;;;;3.25;1.80;;;12.60;99.90;;;;;;5000593;28;20208;-67
2023/12/09 11:18:17;;;;;;;5.47;1.85;;;12.60;99.90;;;;;;4978871;28;20168;-70
2023/12/09 11:20:45;;;;;;;6.20;1.98;;;12.50;99.90;;;;;;4970082;28;20219;-70
2023/12/09 11:23:11;;;;;;;3.75;1.50;;;12.30;99.90;;;;;;4975066;28;20295;-71
2023/12/09 11:25:44;;;;;;;8.77;2.20;;;12.20;99.90;;;;;;4976473;28;20180;-70
2023/12/09 11:28:15;;;;;;;4.20;1.60;;;12.10;99.90;;;;;;4978223;28;20183;-70
2023/12/09 11:30:42;;;;;;;8.02;1.65;;;12.00;99.90;;;;;;5005997;28;20172;-69
2023/12/09 11:33:11;;;;;;;6.95;1.88;;;12.00;99.90;;;;;;4966211;28;20195;-71
2023/12/09 11:35:37;;;;;;;5.80;1.60;;;11.90;99.90;;;;;;4975905;28;20298;-71
2023/12/09 11:38:08;;;;;;;5.00;1.65;;;11.80;99.90;;;;;;4975849;28;20195;-70
2023/12/09 11:40:34;;;;;;;6.28;1.23;;;11.80;99.90;;;;;;4981076;28;20179;-72
2023/12/09 11:43:08;;;;;;;4.55;1.83;;;11.80;99.90;;;;;;4978302;28;20195;-68
2023/12/09 11:45:36;;;;;;;7.20;1.75;;;11.70;99.90;;;;;;4975215;28;20271;-68
2023/12/09 11:48:06;;;;;;;3.78;1.40;;;11.70;99.90;;;;;;4975973;28;20184;-68
2023/12/09 11:50:32;;;;;;;4.93;1.67;;;11.70;99.90;;;;;;4965289;28;20187;-70
2023/12/09 11:53:00;;;;;;;4.65;1.50;;;11.70;99.90;;;;;;4960562;28;20344;-68
2023/12/09 11:55:26;;;;;;;6.10;1.30;;;11.70;99.90;;;;;;4968982;28;20301;-69
2023/12/09 11:57:51;;;;;;;5.38;1.27;;;11.70;99.90;;;;;;4970818;28;20220;-69
2023/12/09 12:00:19;;;;;;;5.00;1.40;;;11.70;99.90;;;;;;4978936;28;20195;-67
2023/12/09 12:02:45;;;;;;;3.22;1.30;;;11.70;99.90;;;;;;4980418;28;20212;-71
2023/12/09 12:05:13;;;;;;;5.75;1.40;;;11.70;99.90;;;;;;4965976;28;20172;-70
2023/12/09 12:07:39;;;;;;;4.75;1.67;;;11.70;99.90;;;;;;4974000;28;20187;-71
2023/12/09 12:10:08;;;;;;;6.15;1.40;;;11.70;99.90;;;;;;4972859;28;20436;-71
2023/12/09 12:12:35;;;;;;;5.22;1.60;;;11.70;99.90;;;;;;4973035;28;20192;-69
2023/12/09 12:15:03;;;;;;;4.80;1.85;;;11.70;99.90;;;;;;4974523;28;20286;-70
2023/12/09 12:17:39;;;;;;;3.13;1.52;;;11.70;99.90;;;;;;4973661;28;20180;-68
2023/12/09 12:20:10;;;;;;;6.10;2.22;;;11.70;99.90;;;;;;4964010;28;20176;-69
2023/12/09 12:22:40;;;;;;;4.88;1.70;;;11.60;99.90;;;;;;4978733;28;20215;-69
2023/12/09 12:25:08;;;;;;;4.05;1.75;;;11.60;99.90;;;;;;4979979;28;20184;-65
2023/12/09 12:27:41;;;;;;;4.97;1.92;;;11.60;99.90;;;;;;4973100;28;20199;-69
2023/12/09 12:30:10;;;;;;;5.85;2.15;;;11.60;99.90;;;;;;4969858;28;20176;-64
2023/12/09 12:32:37;;;;;;;3.80;1.73;;;11.60;99.90;;;;;;5005160;28;20179;-70
2023/12/09 12:35:09;;;;;;;4.70;2.10;;;11.50;99.90;;;;;;4975026;28;20201;-69
2023/12/09 12:37:37;;;;;;;4.60;2.08;;;11.50;99.90;;;;;;4971762;28;20180;-69
2023/12/09 12:40:03;;;;;;;5.30;2.10;;;11.50;99.90;;;;;;4974240;28;20181;-66
2023/12/09 12:42:29;;;;;;;4.35;2.03;;;11.50;99.90;;;;;;4975587;28;20173;-71
2023/12/09 12:44:55;;;;;;;4.63;2.35;;;11.40;99.90;;;;;;4967438;28;20177;-69
2023/12/09 12:47:21;;;;;;;4.90;2.28;;;11.40;99.90;;;;;;4984017;28;20204;-66
2023/12/09 12:49:46;;;;;;;4.97;2.20;;;11.40;99.90;;;;;;4976168;28;20239;-69
2023/12/09 12:52:12;;;;;;;4.75;2.47;;;11.30;99.90;;;;;;4980922;28;20299;-70
2023/12/09 12:54:38;;;;;;;4.63;2.42;;;11.30;99.90;;;;;;4970570;28;20251;-69
2023/12/09 12:57:04;;;;;;;3.55;2.00;;;11.30;99.90;;;;;;4980029;28;20209;-70